Time;durP1;ratioP1;P1;durP2;ratioP2;P2;SDS_P1;SDS_P2;PMS_P1;PMS_P2;Temp;Humidity;BMP_temperature;BMP_pressure;BME280_temperature;BME280_humidity;BME280_pressure;Samples;Min_cycle;Max_cycle;Signal;HPM_P1;HPM_P2
2022/05/18 00:02:10;;;;;;;2.30;2.10;;;14.30;23.90;;;;;;5152278;27;34198;-75
2022/05/18 00:04:36;;;;;;;2.42;2.13;;;14.20;23.90;;;;;;5131007;27;36655;-75
2022/05/18 00:07:03;;;;;;;2.97;2.08;;;14.20;24.00;;;;;;5129863;27;34052;-75
2022/05/18 00:09:29;;;;;;;2.47;2.00;;;14.10;24.30;;;;;;5110089;27;34428;-76
2022/05/18 00:11:55;;;;;;;6.80;2.38;;;14.10;24.30;;;;;;5129120;27;34418;-77
2022/05/18 00:14:21;;;;;;;4.65;2.03;;;14.10;24.50;;;;;;5144881;27;34027;-76
2022/05/18 00:16:47;;;;;;;2.95;2.20;;;14.00;24.50;;;;;;5127497;27;34405;-76
2022/05/18 00:19:12;;;;;;;2.70;2.08;;;14.00;24.60;;;;;;5139046;27;34464;-76
2022/05/18 00:21:38;;;;;;;4.68;2.30;;;14.00;24.70;;;;;;5110305;27;34441;-76
2022/05/18 00:24:05;;;;;;;3.42;2.10;;;13.90;24.70;;;;;;5128037;27;34445;-77
2022/05/18 00:26:31;;;;;;;2.47;1.98;;;13.90;24.80;;;;;;5127996;27;34186;-76
2022/05/18 00:28:57;;;;;;;5.68;2.08;;;13.90;24.80;;;;;;5113000;27;34353;-76
2022/05/18 00:31:23;;;;;;;2.85;2.28;;;13.80;24.80;;;;;;5126915;27;34118;-76
2022/05/18 00:33:49;;;;;;;1.98;1.85;;;13.90;25.00;;;;;;5118669;27;36372;-77
2022/05/18 00:36:15;;;;;;;2.83;2.20;;;13.80;25.00;;;;;;5130104;27;34093;-77
2022/05/18 00:38:41;;;;;;;2.42;2.10;;;13.80;25.10;;;;;;5147672;27;34077;-76
2022/05/18 00:41:07;;;;;;;2.60;2.00;;;13.70;25.20;;;;;;5129892;27;34122;-76
2022/05/18 00:43:38;;;;;;;3.35;2.20;;;13.70;25.20;;;;;;5109076;27;35942;-76
2022/05/18 00:46:07;;;;;;;4.88;2.05;;;13.70;26.20;;;;;;5126365;27;34613;-76
2022/05/18 00:48:33;;;;;;;2.50;2.00;;;13.60;25.50;;;;;;5120860;27;34096;-76
2022/05/18 00:51:04;;;;;;;2.90;2.20;;;13.60;25.40;;;;;;5109462;27;34179;-76
2022/05/18 00:53:36;;;;;;;2.22;2.03;;;13.60;25.70;;;;;;5127049;27;34466;-76
2022/05/18 00:56:07;;;;;;;2.10;1.90;;;13.60;25.80;;;;;;5109023;27;34300;-76
2022/05/18 00:58:41;;;;;;;2.40;2.20;;;13.50;25.70;;;;;;5109847;27;34483;-77
2022/05/18 01:01:08;;;;;;;2.03;1.90;;;13.50;26.10;;;;;;5092074;27;34178;-77
2022/05/18 01:03:40;;;;;;;2.15;2.00;;;13.40;25.70;;;;;;5109051;27;36007;-76
2022/05/18 01:06:23;;;;;;;2.38;2.17;;;13.40;26.20;;;;;;5147902;27;33983;-76
2022/05/18 01:09:07;;;;;;;2.25;2.05;;;13.30;27.40;;;;;;5129048;27;34157;-76
2022/05/18 01:11:35;;;;;;;2.83;2.22;;;13.30;28.70;;;;;;5127408;27;34088;-76
2022/05/18 01:14:03;;;;;;;2.72;2.53;;;13.20;26.00;;;;;;5107344;27;35917;-76
2022/05/18 01:16:29;;;;;;;3.10;2.30;;;13.20;26.10;;;;;;5105401;28;34454;-77
2022/05/18 01:18:57;;;;;;;3.30;2.45;;;13.20;26.10;;;;;;5085292;27;33681;-76
2022/05/18 01:21:34;;;;;;;3.28;2.42;;;13.20;26.40;;;;;;5143026;27;34022;-77
2022/05/18 01:24:11;;;;;;;2.60;2.40;;;13.20;27.50;;;;;;5126975;27;34424;-76
2022/05/18 01:26:43;;;;;;;2.85;2.55;;;13.20;27.40;;;;;;5108493;27;34118;-77
2022/05/18 01:29:10;;;;;;;3.08;2.22;;;13.10;27.00;;;;;;5126625;27;34060;-76
2022/05/18 01:31:56;;;;;;;2.08;1.98;;;13.10;26.50;;;;;;5129608;27;34300;-76
2022/05/18 01:34:26;;;;;;;4.57;2.60;;;13.00;28.90;;;;;;5128619;27;36545;-77
2022/05/18 01:36:52;;;;;;;2.60;2.30;;;13.00;26.60;;;;;;5129215;27;34087;-77
2022/05/18 01:39:33;;;;;;;3.78;2.17;;;13.00;26.50;;;;;;5128653;27;34168;-77
2022/05/18 01:42:14;;;;;;;2.60;2.35;;;12.90;27.10;;;;;;5107896;27;34551;-77
2022/05/18 01:44:41;;;;;;;2.40;2.20;;;12.90;27.30;;;;;;5091072;27;36803;-77
2022/05/18 01:47:07;;;;;;;2.25;1.90;;;12.90;26.60;;;;;;5091216;27;34332;-76
2022/05/18 01:49:37;;;;;;;3.10;2.42;;;12.90;26.60;;;;;;5108227;27;34075;-77
2022/05/18 01:52:03;;;;;;;2.15;1.92;;;12.80;26.70;;;;;;5142804;27;34164;-77
2022/05/18 01:54:29;;;;;;;2.60;2.35;;;12.80;26.70;;;;;;5090734;27;35500;-77
2022/05/18 01:56:57;;;;;;;2.47;2.17;;;12.70;26.90;;;;;;5107698;27;34167;-77
2022/05/18 01:59:23;;;;;;;2.72;2.38;;;12.70;27.30;;;;;;5107545;27;34304;-77
2022/05/18 02:01:49;;;;;;;2.40;2.20;;;12.70;27.10;;;;;;5126032;27;34108;-77
2022/05/18 02:04:15;;;;;;;3.03;2.67;;;12.70;27.10;;;;;;5135102;27;34157;-77
2022/05/18 02:06:41;;;;;;;3.55;2.28;;;12.60;27.00;;;;;;5128459;27;34353;-77
2022/05/18 02:09:07;;;;;;;2.83;2.17;;;12.60;27.20;;;;;;5128162;27;34174;-77
2022/05/18 02:11:35;;;;;;;3.05;2.30;;;12.60;27.30;;;;;;5123873;27;34143;-77
2022/05/18 02:14:01;;;;;;;3.08;2.22;;;12.50;27.40;;;;;;5124875;27;35555;-77
2022/05/18 02:16:27;;;;;;;2.22;2.03;;;12.50;27.30;;;;;;5142143;27;34156;-78
2022/05/18 02:18:52;;;;;;;2.83;2.33;;;12.50;27.40;;;;;;5108021;27;34364;-77
2022/05/18 02:21:18;;;;;;;2.58;2.00;;;12.40;27.60;;;;;;5090263;27;34120;-77
2022/05/18 02:23:44;;;;;;;2.45;2.17;;;12.40;27.50;;;;;;5142157;27;35807;-77
2022/05/18 02:26:15;;;;;;;2.67;2.20;;;12.40;27.60;;;;;;5107533;27;34185;-77
2022/05/18 02:28:41;;;;;;;2.80;2.17;;;12.40;27.90;;;;;;5125104;27;34208;-77
2022/05/18 02:31:07;;;;;;;3.20;2.25;;;12.40;27.70;;;;;;5107504;27;34339;-77
2022/05/18 02:33:33;;;;;;;3.00;2.60;;;12.30;27.60;;;;;;5125343;27;35251;-77
2022/05/18 02:36:00;;;;;;;2.85;2.38;;;12.30;27.90;;;;;;5107138;27;34146;-77
2022/05/18 02:38:26;;;;;;;2.92;2.38;;;12.30;28.00;;;;;;5120072;27;34207;-77
2022/05/18 02:40:52;;;;;;;3.33;2.30;;;12.30;28.00;;;;;;5127823;27;34490;-77
2022/05/18 02:43:18;;;;;;;2.45;2.25;;;12.20;27.90;;;;;;5126716;27;34160;-77
2022/05/18 02:45:44;;;;;;;7.45;2.50;;;12.20;28.00;;;;;;5106963;27;34106;-76
2022/05/18 02:48:11;;;;;;;2.83;2.45;;;12.20;28.20;;;;;;5090221;27;34119;-77
2022/05/18 02:50:37;;;;;;;6.93;2.30;;;12.20;28.20;;;;;;5107678;27;34282;-77
2022/05/18 02:53:03;;;;;;;3.20;2.60;;;12.20;28.20;;;;;;5106548;27;35864;-77
2022/05/18 02:58:10;;;;;;;5.38;2.58;;;12.10;28.40;;;;;;5127129;27;34444;-77
2022/05/18 03:00:36;;;;;;;2.95;2.63;;;12.10;28.30;;;;;;5127795;27;34095;-77
2022/05/18 03:03:02;;;;;;;4.50;2.50;;;12.00;28.30;;;;;;5144608;27;36756;-77
2022/05/18 03:05:29;;;;;;;3.72;2.47;;;12.00;29.20;;;;;;5127317;27;34051;-77
2022/05/18 03:07:57;;;;;;;2.83;2.45;;;12.00;28.60;;;;;;5110590;27;34325;-77
2022/05/18 03:10:23;;;;;;;4.95;2.58;;;12.00;28.60;;;;;;5127273;27;34114;-77
2022/05/18 03:12:49;;;;;;;3.42;2.50;;;12.00;28.60;;;;;;5129170;27;35713;-77
2022/05/18 03:15:14;;;;;;;6.70;2.70;;;12.00;28.70;;;;;;5124964;27;34000;-77
2022/05/18 03:17:40;;;;;;;2.42;2.22;;;12.00;28.80;;;;;;5106900;27;34267;-76
2022/05/18 03:20:08;;;;;;;2.33;2.05;;;12.00;28.80;;;;;;5106692;27;34624;-77
2022/05/18 03:25:15;;;;;;;3.05;2.38;;;11.90;28.80;;;;;;5125253;27;34205;-76
2022/05/18 03:27:43;;;;;;;2.38;2.17;;;11.90;28.90;;;;;;5120687;27;34252;-76
2022/05/18 03:30:11;;;;;;;4.18;2.00;;;11.80;28.90;;;;;;5127617;27;34074;-77
2022/05/18 03:32:39;;;;;;;3.22;2.17;;;11.80;29.10;;;;;;5113381;27;35958;-77
2022/05/18 03:35:07;;;;;;;2.53;2.30;;;11.80;29.00;;;;;;5140837;27;34105;-77
2022/05/18 03:37:32;;;;;;;2.30;2.10;;;11.80;29.00;;;;;;5089513;27;34551;-76
2022/05/18 03:39:58;;;;;;;2.35;2.03;;;11.80;29.20;;;;;;5106347;27;34277;-76
2022/05/18 03:42:25;;;;;;;2.40;2.17;;;11.80;29.20;;;;;;5096359;27;36563;-76
2022/05/18 03:44:50;;;;;;;3.53;2.53;;;11.80;29.20;;;;;;5123905;27;34121;-76
2022/05/18 03:47:16;;;;;;;2.70;2.15;;;11.80;29.20;;;;;;5151875;27;34412;-76
2022/05/18 03:49:42;;;;;;;2.88;2.55;;;11.80;29.30;;;;;;5126876;27;34472;-77
2022/05/18 03:52:08;;;;;;;2.50;2.30;;;11.80;29.40;;;;;;5126457;27;34620;-76
2022/05/18 03:54:34;;;;;;;5.82;2.40;;;11.70;29.40;;;;;;5126643;27;34339;-77
2022/05/18 03:57:00;;;;;;;2.92;2.63;;;11.70;29.40;;;;;;5128885;27;34214;-76
2022/05/18 03:59:26;;;;;;;2.88;2.60;;;11.70;29.40;;;;;;5140790;27;34164;-77
2022/05/18 04:01:52;;;;;;;3.05;2.38;;;11.70;29.50;;;;;;5088941;27;36081;-76
2022/05/18 04:04:18;;;;;;;2.47;2.13;;;11.80;29.50;;;;;;5089124;27;34087;-76
2022/05/18 04:06:44;;;;;;;2.42;1.85;;;11.80;29.50;;;;;;5096840;27;34215;-77
2022/05/18 04:09:10;;;;;;;2.28;2.08;;;11.80;29.40;;;;;;5126932;27;34430;-77
2022/05/18 04:11:36;;;;;;;3.72;2.95;;;11.80;29.60;;;;;;5144721;27;34355;-77
2022/05/18 04:14:02;;;;;;;2.42;2.22;;;11.80;29.60;;;;;;5125446;27;34353;-77
2022/05/18 04:16:28;;;;;;;2.38;2.17;;;11.80;29.60;;;;;;5120428;27;34340;-77
2022/05/18 04:18:54;;;;;;;3.22;2.95;;;11.80;29.50;;;;;;5105625;27;34167;-77
2022/05/18 04:21:20;;;;;;;4.35;2.60;;;11.90;29.70;;;;;;5088716;27;35606;-77
2022/05/18 04:23:46;;;;;;;3.05;2.35;;;11.90;29.80;;;;;;5106376;27;34114;-76
2022/05/18 04:26:12;;;;;;;4.65;2.40;;;11.90;29.80;;;;;;5123979;27;34081;-77
2022/05/18 04:28:38;;;;;;;4.90;2.80;;;11.90;29.90;;;;;;5108442;27;34154;-77
2022/05/18 04:31:04;;;;;;;3.15;2.42;;;11.90;29.80;;;;;;5108532;27;35696;-77
2022/05/18 04:33:30;;;;;;;2.95;2.70;;;12.00;29.80;;;;;;5109497;27;34237;-77
2022/05/18 04:35:56;;;;;;;5.13;2.53;;;12.00;29.70;;;;;;5127771;27;34213;-77
2022/05/18 04:38:23;;;;;;;2.72;2.53;;;12.00;29.80;;;;;;5110229;27;34289;-77
2022/05/18 04:40:48;;;;;;;2.97;2.38;;;12.00;29.90;;;;;;5126249;27;36301;-77
2022/05/18 04:43:18;;;;;;;2.97;2.58;;;12.10;30.00;;;;;;5159998;27;34183;-77
2022/05/18 04:45:45;;;;;;;2.97;2.55;;;12.10;30.20;;;;;;5129569;27;34090;-77
2022/05/18 04:48:20;;;;;;;3.88;2.50;;;12.10;30.00;;;;;;5129402;27;34083;-76
2022/05/18 04:50:47;;;;;;;2.95;2.60;;;12.20;31.00;;;;;;5129517;27;36479;-77
2022/05/18 04:53:15;;;;;;;3.25;2.50;;;12.20;30.10;;;;;;5145013;27;34180;-76
2022/05/18 04:55:41;;;;;;;2.85;2.65;;;12.30;30.10;;;;;;5143822;27;34164;-76
2022/05/18 04:58:07;;;;;;;2.15;2.00;;;12.30;30.10;;;;;;5118429;27;34067;-77
2022/05/18 05:00:33;;;;;;;2.90;2.53;;;12.40;30.20;;;;;;5126928;27;34507;-76
2022/05/18 05:03:00;;;;;;;4.72;2.70;;;12.40;30.10;;;;;;5144253;27;34209;-77
2022/05/18 05:05:27;;;;;;;3.72;2.83;;;12.50;30.20;;;;;;5120456;27;34223;-77
2022/05/18 05:07:54;;;;;;;3.28;2.58;;;12.60;30.20;;;;;;5129273;27;34338;-77
2022/05/18 05:10:20;;;;;;;3.17;2.88;;;12.80;30.10;;;;;;5163535;27;37482;-76
2022/05/18 05:12:46;;;;;;;3.60;2.47;;;13.00;29.90;;;;;;5117364;27;34135;-76
2022/05/18 05:15:13;;;;;;;7.70;2.80;;;13.30;29.60;;;;;;5126349;27;34085;-76
2022/05/18 05:17:39;;;;;;;3.30;2.90;;;13.80;28.90;;;;;;5091281;27;34164;-77
2022/05/18 05:20:06;;;;;;;3.80;2.80;;;14.40;28.00;;;;;;5142394;27;36295;-77
2022/05/18 05:22:32;;;;;;;3.42;2.90;;;15.00;27.00;;;;;;5134029;27;34152;-76
2022/05/18 05:24:58;;;;;;;12.40;2.95;;;15.60;25.80;;;;;;5088154;27;34158;-77
2022/05/18 05:27:24;;;;;;;9.15;2.65;;;16.20;24.70;;;;;;5142534;27;34139;-77
2022/05/18 05:29:50;;;;;;;4.22;3.28;;;16.70;24.00;;;;;;5091434;27;35938;-77
2022/05/18 05:32:16;;;;;;;2.78;2.58;;;17.10;23.20;;;;;;5108096;27;34278;-77
2022/05/18 05:34:42;;;;;;;4.03;2.40;;;17.50;22.50;;;;;;5108189;27;34460;-77
2022/05/18 05:37:09;;;;;;;3.20;2.75;;;17.90;22.10;;;;;;5126356;27;34350;-77
2022/05/18 05:39:35;;;;;;;3.83;2.40;;;18.20;21.50;;;;;;5107870;27;35501;-77
2022/05/18 05:42:01;;;;;;;2.60;2.40;;;18.70;21.00;;;;;;5126736;27;34219;-77
2022/05/18 05:44:27;;;;;;;3.50;2.92;;;19.20;20.40;;;;;;5108370;27;34242;-77
2022/05/18 05:46:53;;;;;;;4.03;2.33;;;19.60;19.70;;;;;;5142455;27;34064;-77
2022/05/18 05:49:20;;;;;;;3.03;2.60;;;20.10;19.10;;;;;;5107900;27;34381;-77
2022/05/18 05:51:46;;;;;;;3.58;2.45;;;20.70;18.40;;;;;;5108293;27;34139;-77
2022/05/18 05:54:12;;;;;;;2.75;2.33;;;21.10;17.70;;;;;;5107938;27;34497;-77
2022/05/18 05:56:38;;;;;;;2.78;2.30;;;21.50;17.10;;;;;;5092171;27;34135;-77
2022/05/18 05:59:04;;;;;;;5.60;2.65;;;21.80;16.60;;;;;;5098443;27;35471;-77
2022/05/18 06:01:30;;;;;;;2.28;2.08;;;22.20;16.10;;;;;;5096517;27;34437;-77
2022/05/18 06:03:55;;;;;;;2.55;2.30;;;22.60;15.50;;;;;;5128666;27;34438;-76
2022/05/18 06:06:21;;;;;;;3.47;2.60;;;23.00;14.90;;;;;;5140606;27;34093;-77
2022/05/18 06:08:49;;;;;;;3.03;2.40;;;23.40;14.30;;;;;;5090037;27;36285;-77
2022/05/18 06:11:15;;;;;;;4.57;2.63;;;23.80;13.90;;;;;;5107485;27;34309;-77
2022/05/18 06:13:41;;;;;;;2.70;2.17;;;24.20;13.50;;;;;;5107431;27;34169;-77
2022/05/18 06:16:09;;;;;;;3.05;2.17;;;24.50;13.10;;;;;;5107396;27;34087;-78
2022/05/18 06:18:36;;;;;;;2.65;2.42;;;24.90;12.60;;;;;;5127578;27;36002;-78
2022/05/18 06:21:02;;;;;;;2.78;2.22;;;25.30;12.00;;;;;;5098872;27;34172;-77
2022/05/18 06:23:28;;;;;;;2.92;2.30;;;25.60;11.40;;;;;;5085220;28;34365;-77
2022/05/18 06:25:59;;;;;;;2.47;2.28;;;25.90;11.00;;;;;;5084948;28;34187;-77
2022/05/18 06:28:25;;;;;;;3.85;2.42;;;26.40;10.10;;;;;;5085161;28;36590;-77
2022/05/18 06:30:51;;;;;;;4.45;2.63;;;26.50;10.40;;;;;;5100429;28;34200;-77
2022/05/18 06:33:17;;;;;;;3.05;2.70;;;26.60;9.90;;;;;;5100714;28;34189;-77
2022/05/18 06:35:44;;;;;;;4.05;2.40;;;26.70;9.70;;;;;;5079309;28;34177;-78
2022/05/18 06:38:13;;;;;;;4.82;2.47;;;26.70;9.60;;;;;;5103335;28;36749;-77
2022/05/18 06:43:21;;;;;;;5.05;2.60;;;26.70;9.80;;;;;;5076199;28;34094;-77
2022/05/18 06:45:48;;;;;;;3.90;2.50;;;26.80;9.70;;;;;;5078660;28;34187;-77
2022/05/18 06:48:14;;;;;;;2.50;2.20;;;27.00;10.00;;;;;;5099743;28;36450;-77
2022/05/18 06:50:39;;;;;;;4.75;3.13;;;27.00;9.90;;;;;;5078585;28;34180;-78
2022/05/18 06:53:05;;;;;;;3.08;2.65;;;27.00;9.70;;;;;;5110798;27;34317;-77
2022/05/18 06:55:31;;;;;;;5.00;2.50;;;27.10;9.60;;;;;;5108564;28;34152;-78
2022/05/18 06:57:57;;;;;;;3.58;2.40;;;27.30;9.60;;;;;;5069520;28;36047;-77
2022/05/18 07:00:23;;;;;;;4.78;2.90;;;27.50;9.30;;;;;;5076002;28;34334;-78
2022/05/18 07:02:50;;;;;;;2.95;2.22;;;27.70;9.10;;;;;;5075846;28;34408;-77
2022/05/18 07:05:16;;;;;;;5.20;2.47;;;27.70;8.90;;;;;;5127483;27;34727;-78
2022/05/18 07:07:42;;;;;;;2.63;2.42;;;27.90;8.80;;;;;;5079795;28;35657;-79
2022/05/18 07:10:08;;;;;;;2.83;2.50;;;28.10;9.20;;;;;;5085216;28;34065;-77
2022/05/18 07:12:37;;;;;;;2.53;2.33;;;28.30;8.90;;;;;;5086391;28;34372;-78
2022/05/18 07:15:05;;;;;;;3.30;2.15;;;28.60;8.80;;;;;;5083325;28;34329;-77
2022/05/18 07:20:15;;;;;;;3.38;2.33;;;28.80;8.60;;;;;;5109111;27;34028;-77
2022/05/18 07:22:59;;;;;;;2.45;2.20;;;28.70;8.60;;;;;;5127195;27;34144;-77
2022/05/18 07:25:26;;;;;;;3.08;2.45;;;28.90;6.70;;;;;;5127556;27;34406;-77
2022/05/18 07:27:52;;;;;;;3.08;2.10;;;28.80;8.70;;;;;;5142992;27;36372;-77
2022/05/18 07:30:18;;;;;;;4.13;2.30;;;28.80;8.60;;;;;;5144479;27;34115;-77
2022/05/18 07:32:44;;;;;;;2.80;2.33;;;28.70;8.70;;;;;;5128994;27;34109;-77
2022/05/18 07:35:10;;;;;;;2.47;2.13;;;28.70;8.60;;;;;;5118759;27;34384;-76
2022/05/18 07:37:36;;;;;;;2.35;2.15;;;28.60;8.70;;;;;;5151652;27;35629;-77
2022/05/18 07:40:03;;;;;;;2.45;2.10;;;28.70;8.80;;;;;;5105495;27;34087;-76
2022/05/18 07:42:29;;;;;;;3.05;2.05;;;28.90;8.40;;;;;;5123107;27;34212;-77
2022/05/18 07:44:55;;;;;;;2.53;2.30;;;29.00;8.70;;;;;;5128170;27;34114;-76
2022/05/18 07:47:29;;;;;;;2.22;2.00;;;29.00;8.50;;;;;;5110977;27;35834;-78
2022/05/18 07:49:55;;;;;;;4.10;2.40;;;29.10;6.70;;;;;;5123726;27;34158;-77
2022/05/18 07:52:21;;;;;;;2.70;2.10;;;29.00;8.50;;;;;;5123272;27;34428;-77
2022/05/18 07:54:47;;;;;;;4.55;2.00;;;29.00;8.10;;;;;;5127959;27;33991;-77
2022/05/18 07:57:15;;;;;;;4.75;2.10;;;28.90;7.60;;;;;;5118046;27;35888;-76
2022/05/18 07:59:41;;;;;;;2.10;1.80;;;29.00;7.70;;;;;;5108477;27;34234;-77
2022/05/18 08:02:07;;;;;;;2.20;1.90;;;28.90;7.00;;;;;;5125613;27;34223;-76
2022/05/18 08:04:33;;;;;;;2.75;2.00;;;29.00;7.60;;;;;;5140870;27;34178;-76
2022/05/18 08:06:59;;;;;;;2.70;2.00;;;29.30;7.50;;;;;;5117236;27;34415;-76
2022/05/18 08:09:25;;;;;;;4.90;2.00;;;29.50;7.30;;;;;;5125865;27;34362;-77
2022/05/18 08:17:15;;;;;;;3.75;2.15;;;29.60;6.90;;;;;;5128252;27;34126;-76
2022/05/18 08:19:41;;;;;;;1.98;1.70;;;29.80;6.80;;;;;;5115792;27;34304;-77
2022/05/18 08:22:07;;;;;;;2.75;1.80;;;29.80;6.50;;;;;;5126922;27;34693;-76
2022/05/18 08:24:32;;;;;;;2.70;1.70;;;29.80;6.30;;;;;;5115014;27;34319;-77
2022/05/18 08:26:58;;;;;;;2.95;2.10;;;30.00;6.80;;;;;;5131136;27;35669;-77
2022/05/18 08:29:24;;;;;;;1.95;1.60;;;30.20;6.50;;;;;;5150155;27;34499;-76
2022/05/18 08:31:50;;;;;;;4.40;1.70;;;30.40;6.20;;;;;;5131080;27;34144;-77
2022/05/18 08:34:16;;;;;;;2.70;1.65;;;30.50;5.90;;;;;;5148436;27;34116;-77
2022/05/18 08:36:42;;;;;;;1.95;1.60;;;30.60;5.60;;;;;;5129622;27;35563;-76
2022/05/18 08:39:09;;;;;;;1.50;1.40;;;30.80;5.40;;;;;;5093921;27;34101;-76
2022/05/18 08:41:42;;;;;;;2.92;1.88;;;31.00;5.80;;;;;;5109438;27;34325;-75
2022/05/18 08:44:14;;;;;;;1.90;1.70;;;31.30;4.20;;;;;;5148450;27;34285;-76
2022/05/18 08:46:48;;;;;;;1.83;1.70;;;31.40;5.30;;;;;;5144640;27;35796;-76
2022/05/18 08:49:35;;;;;;;5.45;1.75;;;31.70;4.50;;;;;;5092996;27;34231;-76
2022/05/18 08:52:32;;;;;;;2.63;1.70;;;31.60;2.50;;;;;;5096517;27;35201;-76
2022/05/18 08:55:38;;;;;;;2.33;1.70;;;31.60;2.90;;;;;;5130339;27;34283;-75
2022/05/18 08:58:10;;;;;;;3.30;1.50;;;31.80;1.60;;;;;;5103718;27;36597;-75
2022/05/18 09:00:41;;;;;;;1.88;1.40;;;31.90;4.00;;;;;;5130873;27;34000;-77
2022/05/18 09:03:15;;;;;;;2.50;1.70;;;32.10;4.70;;;;;;5112757;27;34223;-76
2022/05/18 09:05:56;;;;;;;2.92;1.70;;;32.30;4.00;;;;;;5124758;27;34303;-76
2022/05/18 09:08:27;;;;;;;1.85;1.52;;;32.50;2.50;;;;;;5105602;27;35625;-76
2022/05/18 09:11:07;;;;;;;2.65;1.60;;;32.50;3.70;;;;;;5124290;27;34238;-76
2022/05/18 09:13:33;;;;;;;1.90;1.45;;;32.50;2.00;;;;;;5124236;27;34385;-76
2022/05/18 09:16:10;;;;;;;2.90;1.83;;;32.50;4.10;;;;;;5123638;27;34328;-77
2022/05/18 09:18:59;;;;;;;3.65;1.55;;;32.30;2.50;;;;;;5120310;27;35706;-76
2022/05/18 09:21:52;;;;;;;1.77;1.67;;;32.30;3.50;;;;;;5152461;27;34301;-76
2022/05/18 09:24:37;;;;;;;8.93;1.70;;;32.30;3.30;;;;;;5131203;27;34141;-76
2022/05/18 09:27:24;;;;;;;4.07;1.67;;;32.30;2.30;;;;;;5158721;27;34164;-76
2022/05/18 09:30:18;;;;;;;1.50;1.40;;;32.40;1.00;;;;;;5159702;27;35628;-76
2022/05/18 09:33:06;;;;;;;1.67;1.58;;;32.40;1.00;;;;;;5117365;27;34372;-75
2022/05/18 09:36:03;;;;;;;2.00;1.70;;;32.50;1.50;;;;;;5113533;27;34272;-76
2022/05/18 09:38:54;;;;;;;2.90;1.70;;;32.70;1.00;;;;;;5113249;27;34095;-76
2022/05/18 09:41:23;;;;;;;1.85;1.50;;;32.70;1.00;;;;;;5142805;27;35573;-76
2022/05/18 09:44:00;;;;;;;1.55;1.40;;;32.80;1.80;;;;;;5107090;27;34313;-75
2022/05/18 09:46:30;;;;;;;5.32;1.80;;;32.80;1.00;;;;;;5107858;27;34140;-75
2022/05/18 09:49:15;;;;;;;2.42;1.58;;;32.80;1.50;;;;;;5127312;27;34046;-75
2022/05/18 09:51:42;;;;;;;1.90;1.38;;;32.90;1.00;;;;;;5144011;27;36833;-77
2022/05/18 09:54:09;;;;;;;1.83;1.30;;;32.90;2.00;;;;;;5144858;27;34060;-76
2022/05/18 09:56:50;;;;;;;5.35;1.40;;;32.90;1.80;;;;;;5127166;27;34314;-74
2022/05/18 09:59:21;;;;;;;1.83;1.20;;;33.10;1.00;;;;;;5123875;27;34558;-76
2022/05/18 10:10:13;;;;;;;2.33;1.35;;;33.70;1.00;;;;;;5127276;27;34133;-75
2022/05/18 10:12:46;;;;;;;2.05;1.75;;;33.70;1.00;;;;;;5141224;27;36361;-76
2022/05/18 10:15:31;;;;;;;3.90;0.90;;;33.70;1.00;;;;;;5113233;27;34257;-77
2022/05/18 10:18:10;;;;;;;1.70;1.02;;;33.80;1.00;;;;;;5114930;27;34303;-79
2022/05/18 10:20:37;;;;;;;1.13;1.02;;;34.00;1.00;;;;;;5127026;27;34708;-77
2022/05/18 10:23:05;;;;;;;1.48;1.00;;;34.00;1.00;;;;;;5131174;27;35767;-75
2022/05/18 10:25:50;;;;;;;1.15;0.80;;;34.10;1.00;;;;;;5129979;27;34335;-75
2022/05/18 10:28:23;;;;;;;2.35;1.02;;;34.30;1.00;;;;;;5128136;27;34668;-75
2022/05/18 10:31:01;;;;;;;1.20;1.10;;;34.40;1.00;;;;;;5148668;27;34468;-76
2022/05/18 10:33:38;;;;;;;3.70;1.23;;;34.50;1.00;;;;;;5147342;27;34159;-75
2022/05/18 10:36:24;;;;;;;0.93;0.93;;;34.60;1.00;;;;;;5132715;27;34322;-76
2022/05/18 10:38:55;;;;;;;1.40;1.30;;;34.70;1.00;;;;;;5125450;27;34492;-77
2022/05/18 10:41:26;;;;;;;0.90;0.90;;;34.50;1.00;;;;;;5119960;27;34292;-75
2022/05/18 10:44:16;;;;;;;4.55;1.17;;;34.50;1.00;;;;;;5125368;27;35476;-76
2022/05/18 10:46:46;;;;;;;2.25;1.10;;;34.60;1.00;;;;;;5111134;27;34179;-75
2022/05/18 10:49:30;;;;;;;1.98;1.00;;;34.80;1.00;;;;;;5153156;27;34327;-76
2022/05/18 10:52:15;;;;;;;2.50;1.00;;;34.90;1.00;;;;;;5130587;27;34140;-76
2022/05/18 10:54:54;;;;;;;2.10;1.10;;;34.80;1.00;;;;;;5093966;27;36901;-76
2022/05/18 10:57:27;;;;;;;1.92;1.42;;;34.80;1.00;;;;;;5110899;27;34146;-75
2022/05/18 11:00:14;;;;;;;1.85;1.30;;;34.80;1.00;;;;;;5120386;27;34086;-76
2022/05/18 11:02:55;;;;;;;1.63;1.00;;;34.90;1.00;;;;;;5130502;27;34168;-75
2022/05/18 11:05:55;;;;;;;2.25;1.40;;;35.00;1.00;;;;;;5147890;27;35660;-75
2022/05/18 11:08:28;;;;;;;1.15;1.00;;;35.10;1.00;;;;;;5105670;28;34229;-75
2022/05/18 11:11:16;;;;;;;1.00;0.90;;;35.00;1.00;;;;;;5088269;28;34505;-75
2022/05/18 11:13:52;;;;;;;1.20;1.10;;;35.00;1.00;;;;;;5105622;28;34394;-74
2022/05/18 11:16:38;;;;;;;1.45;1.10;;;35.00;1.00;;;;;;5102129;28;35752;-76
2022/05/18 11:19:24;;;;;;;1.75;1.08;;;35.00;1.00;;;;;;5087798;28;34838;-76
2022/05/18 11:22:12;;;;;;;1.42;1.17;;;35.20;1.00;;;;;;5088091;28;34147;-75
2022/05/18 11:24:48;;;;;;;1.23;1.13;;;35.40;1.00;;;;;;5071794;28;34159;-75
2022/05/18 11:27:27;;;;;;;3.38;1.17;;;35.30;1.00;;;;;;5073422;28;36367;-75
2022/05/18 11:30:05;;;;;;;1.10;1.00;;;35.40;1.00;;;;;;5087482;28;34278;-75
2022/05/18 11:33:02;;;;;;;2.22;1.05;;;35.30;1.00;;;;;;5103058;28;35120;-75
2022/05/18 11:35:50;;;;;;;1.58;1.17;;;35.20;1.00;;;;;;5088302;28;34189;-76
2022/05/18 11:38:43;;;;;;;1.25;1.15;;;35.20;1.00;;;;;;5076373;27;37091;-76
2022/05/18 11:41:35;;;;;;;1.55;1.23;;;35.30;1.00;;;;;;5111441;27;34281;-75
2022/05/18 11:44:09;;;;;;;2.25;1.15;;;35.30;1.00;;;;;;5145933;27;34036;-76
2022/05/18 11:47:02;;;;;;;1.65;1.00;;;35.30;1.00;;;;;;5098630;27;34289;-75
2022/05/18 11:49:54;;;;;;;2.03;1.20;;;35.20;1.00;;;;;;5097250;27;35664;-76
2022/05/18 11:52:50;;;;;;;2.63;1.30;;;35.30;1.00;;;;;;5125564;27;34167;-75
2022/05/18 11:55:30;;;;;;;2.05;1.05;;;35.30;1.00;;;;;;5102768;27;34094;-75
2022/05/18 11:58:11;;;;;;;3.08;1.55;;;35.30;1.00;;;;;;5130174;27;34650;-76
2022/05/18 12:01:02;;;;;;;1.45;1.10;;;35.30;1.00;;;;;;5150092;27;35455;-76
2022/05/18 12:03:52;;;;;;;1.10;1.00;;;35.20;1.00;;;;;;5112975;27;33787;-76
2022/05/18 12:06:40;;;;;;;1.90;1.30;;;35.00;1.00;;;;;;5132908;27;34213;-76
2022/05/18 12:09:31;;;;;;;1.15;0.90;;;35.10;1.00;;;;;;5159778;27;34191;-75
2022/05/18 12:12:27;;;;;;;3.63;1.20;;;35.30;1.00;;;;;;5137594;27;35178;-76
2022/05/18 12:15:16;;;;;;;1.27;1.08;;;35.40;1.00;;;;;;5146448;27;34133;-78
2022/05/18 12:17:54;;;;;;;2.10;1.30;;;35.60;1.00;;;;;;5116573;27;34123;-74
2022/05/18 12:20:43;;;;;;;1.38;1.27;;;35.60;1.00;;;;;;5112036;27;34126;-77
2022/05/18 12:23:14;;;;;;;1.25;1.02;;;35.70;1.00;;;;;;5111442;27;36138;-76
2022/05/18 12:25:40;;;;;;;1.33;1.08;;;35.60;1.00;;;;;;5129449;27;34175;-76
2022/05/18 12:28:08;;;;;;;2.30;1.10;;;35.60;1.00;;;;;;5113735;27;34086;-75
2022/05/18 12:30:37;;;;;;;1.52;1.20;;;35.60;1.00;;;;;;5111700;27;34491;-74
2022/05/18 12:33:05;;;;;;;3.13;1.30;;;35.60;1.00;;;;;;5146878;27;35107;-77
2022/05/18 12:36:04;;;;;;;2.10;1.13;;;35.50;1.00;;;;;;5114809;27;34466;-75
2022/05/18 12:38:39;;;;;;;1.27;1.13;;;35.30;1.00;;;;;;5151129;27;34209;-74
2022/05/18 12:41:11;;;;;;;3.20;1.13;;;35.30;1.00;;;;;;5109537;27;34350;-75
2022/05/18 12:43:44;;;;;;;1.23;1.00;;;35.30;1.00;;;;;;5095216;27;36029;-75
2022/05/18 12:46:28;;;;;;;1.90;1.17;;;35.40;1.00;;;;;;5110713;27;34469;-75
2022/05/18 12:49:00;;;;;;;1.98;0.90;;;35.40;1.00;;;;;;5111304;27;34405;-76
2022/05/18 12:51:44;;;;;;;1.10;1.00;;;35.40;1.00;;;;;;5128043;27;34345;-76
2022/05/18 12:54:33;;;;;;;1.52;1.00;;;35.40;1.00;;;;;;5120089;27;34254;-75
2022/05/18 12:57:21;;;;;;;1.67;0.95;;;35.40;1.00;;;;;;5150168;27;34486;-75
2022/05/18 13:00:06;;;;;;;2.60;1.02;;;35.30;1.00;;;;;;5132492;27;34272;-75
2022/05/18 13:02:40;;;;;;;1.40;1.10;;;35.30;1.00;;;;;;5122030;27;35437;-76
2022/05/18 13:05:31;;;;;;;1.00;0.93;;;35.20;1.00;;;;;;5116876;27;36140;-75
2022/05/18 13:08:37;;;;;;;2.60;1.00;;;35.30;1.00;;;;;;5094911;27;34150;-75
2022/05/18 13:11:28;;;;;;;1.83;1.00;;;35.40;1.00;;;;;;5115670;27;34508;-77
2022/05/18 13:14:27;;;;;;;1.17;0.80;;;35.50;1.00;;;;;;5111719;27;34404;-76
2022/05/18 13:17:03;;;;;;;3.88;1.00;;;35.40;1.00;;;;;;5118247;27;35569;-77
2022/05/18 13:19:32;;;;;;;3.75;1.15;;;35.30;1.00;;;;;;5132028;27;34384;-74
2022/05/18 13:22:34;;;;;;;1.10;0.90;;;35.30;1.00;;;;;;5133385;27;34161;-76
2022/05/18 13:25:02;;;;;;;1.05;0.90;;;35.40;1.00;;;;;;5129136;27;34473;-75
2022/05/18 13:27:32;;;;;;;0.93;0.90;;;35.40;1.00;;;;;;5127666;27;36559;-76
2022/05/18 13:30:01;;;;;;;1.98;1.00;;;35.20;1.00;;;;;;5129314;27;34373;-75
2022/05/18 13:32:28;;;;;;;1.20;0.93;;;34.90;1.00;;;;;;5123238;27;34183;-75
2022/05/18 13:35:04;;;;;;;1.55;1.40;;;34.70;1.00;;;;;;5095419;27;34179;-75
2022/05/18 13:37:30;;;;;;;1.85;1.15;;;34.40;1.00;;;;;;5111501;27;36657;-76
2022/05/18 13:39:57;;;;;;;1.67;0.73;;;34.30;1.00;;;;;;5161133;27;34207;-76
2022/05/18 13:42:27;;;;;;;1.58;1.20;;;34.20;1.00;;;;;;5127901;27;34277;-75